Time;durP1;ratioP1;P1;durP2;ratioP2;P2;SDS_P1;SDS_P2;PMS_P1;PMS_P2;Temp;Humidity;BMP_temperature;BMP_pressure;BME280_temperature;BME280_humidity;BME280_pressure;Samples;Min_cycle;Max_cycle;Signal;HPM_P1;HPM_P2
2021/12/15 00:01:19;;;;;;;42.40;29.03;;;7.90;99.90;;;;;;5029086;28;20554;-51
2021/12/15 00:03:46;;;;;;;44.03;30.83;;;7.90;99.90;;;;;;5025406;28;20554;-52
2021/12/15 00:06:17;;;;;;;41.60;29.97;;;7.90;99.90;;;;;;5026184;28;20557;-58
2021/12/15 00:08:45;;;;;;;40.50;29.73;;;7.90;99.90;;;;;;5030169;28;20581;-52
2021/12/15 00:11:13;;;;;;;42.27;30.90;;;7.90;99.90;;;;;;5027246;28;21015;-51
2021/12/15 00:13:41;;;;;;;42.93;30.67;;;7.90;99.90;;;;;;5027316;28;20463;-50
2021/12/15 00:16:10;;;;;;;48.87;32.70;;;7.90;99.90;;;;;;5028185;28;20462;-51
2021/12/15 00:18:41;;;;;;;39.33;31.10;;;7.90;99.90;;;;;;5030210;28;20565;-51
2021/12/15 00:21:10;;;;;;;45.30;32.00;;;7.90;99.90;;;;;;5029139;28;20466;-52
2021/12/15 00:23:37;;;;;;;39.93;30.57;;;7.90;99.90;;;;;;5018414;28;21048;-52
2021/12/15 00:26:04;;;;;;;39.60;29.97;;;7.90;99.90;;;;;;5026035;28;20542;-52
2021/12/15 00:28:32;;;;;;;42.03;31.70;;;7.90;99.90;;;;;;5025671;28;21027;-52
2021/12/15 00:30:59;;;;;;;38.80;29.77;;;7.90;99.90;;;;;;5026862;28;20967;-52
2021/12/15 00:33:26;;;;;;;43.53;30.90;;;7.90;99.90;;;;;;5029065;28;20546;-52
2021/12/15 00:35:55;;;;;;;39.20;29.23;;;7.90;99.90;;;;;;5024362;28;20458;-52
2021/12/15 00:38:22;;;;;;;45.57;30.80;;;7.90;99.90;;;;;;5025984;28;20487;-52
2021/12/15 00:40:49;;;;;;;39.17;30.20;;;7.90;99.90;;;;;;5027231;28;21023;-52
2021/12/15 00:43:16;;;;;;;45.00;30.50;;;7.90;99.90;;;;;;5024878;28;20557;-52
2021/12/15 00:45:43;;;;;;;42.73;31.17;;;7.90;99.90;;;;;;5032149;28;20541;-52
2021/12/15 00:48:10;;;;;;;41.20;29.33;;;7.90;99.90;;;;;;5032758;28;20589;-52
2021/12/15 00:50:38;;;;;;;43.10;30.63;;;7.80;99.90;;;;;;5034084;28;20521;-52
2021/12/15 00:53:07;;;;;;;42.60;30.00;;;7.80;99.90;;;;;;5026229;28;20549;-52
2021/12/15 00:55:36;;;;;;;37.97;29.00;;;7.80;99.90;;;;;;5026681;28;20553;-52
2021/12/15 00:58:04;;;;;;;44.87;30.17;;;7.90;99.90;;;;;;5027602;28;20903;-51
2021/12/15 01:00:35;;;;;;;39.90;28.80;;;7.90;99.90;;;;;;5030577;28;20541;-51
2021/12/15 01:03:02;;;;;;;38.77;30.33;;;7.90;99.90;;;;;;5033521;28;20541;-51
2021/12/15 01:05:32;;;;;;;46.70;32.90;;;7.90;99.90;;;;;;5027876;28;20498;-51
2021/12/15 01:08:00;;;;;;;37.50;28.73;;;7.90;99.90;;;;;;5032464;28;21049;-52
2021/12/15 01:10:42;;;;;;;40.63;31.13;;;7.90;99.90;;;;;;5034487;28;20877;-52
2021/12/15 01:21:21;;;;;;;43.30;29.33;;;7.90;99.90;;;;;;5033169;28;20457;-52
2021/12/15 01:23:47;;;;;;;42.10;30.80;;;7.90;99.90;;;;;;5027837;28;20555;-51
2021/12/15 01:26:16;;;;;;;38.03;29.87;;;7.90;99.90;;;;;;5032881;28;20545;-52
2021/12/15 01:28:43;;;;;;;45.83;29.80;;;7.90;99.90;;;;;;5031149;28;20477;-53
2021/12/15 01:31:11;;;;;;;37.30;28.80;;;7.90;99.90;;;;;;5031924;28;20893;-51
2021/12/15 01:33:42;;;;;;;37.63;28.30;;;7.80;99.90;;;;;;5032629;28;20562;-50
2021/12/15 01:36:09;;;;;;;37.80;27.93;;;7.90;99.90;;;;;;5030819;28;20574;-53
2021/12/15 01:38:38;;;;;;;43.87;30.80;;;7.80;99.90;;;;;;5031111;28;20577;-51
2021/12/15 01:41:07;;;;;;;40.97;30.70;;;7.90;99.90;;;;;;5033902;28;20529;-50
2021/12/15 01:43:50;;;;;;;43.10;30.40;;;7.90;99.90;;;;;;5028281;28;20548;-51
2021/12/15 01:49:07;;;;;;;40.37;28.57;;;7.90;99.90;;;;;;5031210;28;20470;-51
2021/12/15 01:51:34;;;;;;;41.87;29.73;;;7.90;99.90;;;;;;5024020;28;20542;-50
2021/12/15 01:54:01;;;;;;;39.23;29.57;;;7.80;99.90;;;;;;5029346;28;21055;-52
2021/12/15 01:56:28;;;;;;;47.00;31.70;;;7.90;99.90;;;;;;5032492;28;20526;-52
2021/12/15 01:58:56;;;;;;;40.47;27.97;;;7.90;99.90;;;;;;5026229;28;20570;-52
2021/12/15 02:01:23;;;;;;;39.07;28.87;;;7.90;99.90;;;;;;5033176;28;20546;-51
2021/12/15 02:03:50;;;;;;;36.87;29.13;;;7.90;99.90;;;;;;5032806;28;20526;-53
2021/12/15 02:06:17;;;;;;;41.30;28.97;;;7.90;99.90;;;;;;5032116;28;20876;-51
2021/12/15 02:08:44;;;;;;;42.70;30.07;;;7.90;99.90;;;;;;5030796;28;20550;-52
2021/12/15 02:11:11;;;;;;;41.37;29.80;;;7.90;99.90;;;;;;5032701;28;20455;-51
2021/12/15 02:13:38;;;;;;;41.37;30.40;;;7.90;99.90;;;;;;5031793;28;20458;-51
2021/12/15 02:16:08;;;;;;;34.20;26.43;;;7.90;99.90;;;;;;5029666;28;20454;-52
2021/12/15 02:18:37;;;;;;;36.77;28.17;;;7.90;99.90;;;;;;5027012;28;21050;-52
2021/12/15 02:21:08;;;;;;;36.60;27.33;;;7.90;99.90;;;;;;5025777;28;20455;-51
2021/12/15 02:23:40;;;;;;;40.50;30.00;;;7.90;99.90;;;;;;5020594;28;20463;-52
2021/12/15 02:26:13;;;;;;;40.93;27.83;;;7.90;99.90;;;;;;5029479;28;20447;-51
2021/12/15 02:28:41;;;;;;;36.87;27.57;;;7.90;99.90;;;;;;5029237;28;20485;-51
2021/12/15 02:31:15;;;;;;;39.10;27.50;;;7.90;99.90;;;;;;5029866;28;20509;-51
2021/12/15 02:33:53;;;;;;;43.90;28.30;;;7.80;99.90;;;;;;5021073;28;20462;-53
2021/12/15 02:39:08;;;;;;;35.57;27.47;;;7.90;99.90;;;;;;5027112;28;20609;-51
2021/12/15 02:41:36;;;;;;;38.20;27.43;;;7.90;99.90;;;;;;5029202;28;20466;-51
2021/12/15 02:47:28;;;;;;;36.23;27.70;;;7.90;99.90;;;;;;5026847;28;20848;-53
2021/12/15 02:49:58;;;;;;;37.93;28.33;;;7.90;99.90;;;;;;5030347;28;20497;-51
2021/12/15 02:52:26;;;;;;;38.80;27.00;;;7.90;99.90;;;;;;5030749;28;20550;-50
2021/12/15 02:54:52;;;;;;;36.17;26.77;;;7.90;99.90;;;;;;5029744;28;20494;-52
2021/12/15 02:57:19;;;;;;;34.20;26.93;;;7.90;99.90;;;;;;5031253;28;20478;-52
2021/12/15 02:59:55;;;;;;;40.07;29.10;;;7.90;99.90;;;;;;5029813;28;21003;-51
2021/12/15 03:03:05;;;;;;;37.87;26.70;;;7.90;99.90;;;;;;5019961;28;20467;-51
2021/12/15 03:05:34;;;;;;;36.77;26.40;;;7.90;99.90;;;;;;5031796;28;20434;-52
2021/12/15 03:08:07;;;;;;;34.93;26.60;;;7.90;99.90;;;;;;5021694;28;20476;-51
2021/12/15 03:16:06;;;;;;;37.50;27.07;;;7.80;99.90;;;;;;5029767;28;20971;-51
2021/12/15 03:18:33;;;;;;;32.80;25.57;;;7.80;99.90;;;;;;5029270;28;20552;-50
2021/12/15 03:21:02;;;;;;;36.93;24.63;;;7.80;99.90;;;;;;5027639;28;20539;-51
2021/12/15 03:23:36;;;;;;;40.23;27.00;;;7.80;99.90;;;;;;5029141;28;20475;-51
2021/12/15 03:26:03;;;;;;;34.00;26.80;;;7.80;99.90;;;;;;5030969;28;20458;-51
2021/12/15 03:34:14;;;;;;;37.17;26.93;;;7.80;99.90;;;;;;5025278;28;20450;-52
2021/12/15 03:39:38;;;;;;;37.80;26.37;;;7.80;99.90;;;;;;5022776;28;20682;-51
2021/12/15 03:42:08;;;;;;;35.90;25.43;;;7.80;99.90;;;;;;5030579;28;20466;-51
2021/12/15 03:44:38;;;;;;;32.77;25.17;;;7.80;99.90;;;;;;5031265;28;20463;-51
2021/12/15 03:47:14;;;;;;;33.60;26.70;;;7.90;99.90;;;;;;5028489;28;20549;-51
2021/12/15 03:49:41;;;;;;;41.50;24.57;;;7.90;99.90;;;;;;5016336;28;20900;-51
2021/12/15 03:52:10;;;;;;;32.97;24.77;;;7.90;99.90;;;;;;5025656;28;20471;-51
2021/12/15 03:54:38;;;;;;;33.33;25.70;;;7.90;99.90;;;;;;5028645;28;20917;-51
2021/12/15 03:57:06;;;;;;;36.07;26.93;;;7.80;99.90;;;;;;5029946;28;20993;-52
2021/12/15 03:59:34;;;;;;;35.83;26.40;;;7.80;99.90;;;;;;5026396;28;21691;-51
2021/12/15 04:02:01;;;;;;;33.37;25.00;;;7.80;99.90;;;;;;5030420;28;20469;-53
2021/12/15 04:04:27;;;;;;;34.73;25.03;;;7.80;99.90;;;;;;5026616;28;20530;-52
2021/12/15 04:06:54;;;;;;;32.90;24.47;;;7.80;99.90;;;;;;5030602;28;20853;-50
2021/12/15 04:09:20;;;;;;;34.07;24.83;;;7.80;99.90;;;;;;5027880;28;20895;-51
2021/12/15 04:11:49;;;;;;;33.67;24.73;;;7.80;99.90;;;;;;5028301;28;20490;-53
2021/12/15 04:14:22;;;;;;;33.90;24.93;;;7.80;99.90;;;;;;5022376;28;20503;-52
2021/12/15 04:17:00;;;;;;;30.83;24.60;;;7.90;99.90;;;;;;5026951;28;20522;-53
2021/12/15 04:19:27;;;;;;;33.83;24.40;;;7.90;99.90;;;;;;5020202;28;20486;-51
2021/12/15 04:21:54;;;;;;;35.60;26.40;;;7.90;99.90;;;;;;5034886;28;21011;-51
2021/12/15 04:24:21;;;;;;;37.47;25.20;;;7.90;99.90;;;;;;5030941;28;20990;-51
2021/12/15 04:26:49;;;;;;;32.70;24.33;;;7.90;99.90;;;;;;5028489;28;20509;-52
2021/12/15 04:29:16;;;;;;;35.60;24.77;;;7.80;99.90;;;;;;5028970;28;20557;-51
2021/12/15 04:31:46;;;;;;;30.53;23.27;;;7.80;99.90;;;;;;5027056;28;20968;-51
2021/12/15 04:34:13;;;;;;;32.50;24.50;;;7.80;99.90;;;;;;5032780;28;20541;-52
2021/12/15 04:36:43;;;;;;;31.60;23.40;;;7.80;99.90;;;;;;5030106;28;20892;-51
2021/12/15 04:39:14;;;;;;;33.70;25.57;;;7.80;99.90;;;;;;5028634;28;20573;-52
2021/12/15 04:41:46;;;;;;;30.00;23.07;;;7.80;99.90;;;;;;5034541;28;20538;-53
2021/12/15 04:44:16;;;;;;;33.40;25.43;;;7.80;99.90;;;;;;5031220;28;20466;-51
2021/12/15 04:46:46;;;;;;;32.70;23.77;;;7.80;99.90;;;;;;5030805;28;21175;-51
2021/12/15 04:49:14;;;;;;;33.30;25.73;;;7.80;99.90;;;;;;5031207;28;20483;-53
2021/12/15 04:51:41;;;;;;;37.20;25.63;;;7.90;99.90;;;;;;5033850;28;21035;-51
2021/12/15 04:54:08;;;;;;;35.10;25.07;;;7.90;99.90;;;;;;5030596;28;20553;-52
2021/12/15 04:56:35;;;;;;;33.83;23.20;;;7.90;99.90;;;;;;5032176;28;20454;-51
2021/12/15 04:59:02;;;;;;;32.77;24.30;;;7.90;99.90;;;;;;5031568;28;20570;-53
2021/12/15 05:01:29;;;;;;;45.60;25.13;;;7.90;99.90;;;;;;5032473;28;20494;-53
2021/12/15 05:03:56;;;;;;;33.57;24.07;;;7.90;99.90;;;;;;5033885;28;20486;-53
2021/12/15 05:06:23;;;;;;;35.67;25.23;;;7.90;99.90;;;;;;5032500;28;20498;-52
2021/12/15 05:08:50;;;;;;;34.27;24.60;;;7.90;99.90;;;;;;5030955;28;20512;-53
2021/12/15 05:11:17;;;;;;;30.10;22.80;;;7.90;99.90;;;;;;5033183;28;20905;-51
2021/12/15 05:13:44;;;;;;;46.70;25.23;;;7.90;99.90;;;;;;5031954;28;20497;-52
2021/12/15 05:16:11;;;;;;;33.13;23.90;;;7.90;99.90;;;;;;5029212;28;22025;-53
2021/12/15 05:18:39;;;;;;;29.07;22.57;;;7.90;99.90;;;;;;5030961;28;20573;-53
2021/12/15 05:21:07;;;;;;;29.30;22.20;;;7.90;99.90;;;;;;5031228;28;21048;-53
2021/12/15 05:23:34;;;;;;;25.03;20.50;;;8.00;99.90;;;;;;5029538;28;20458;-53
2021/12/15 05:26:01;;;;;;;30.03;22.10;;;8.00;99.90;;;;;;5033659;28;20447;-51
2021/12/15 05:28:28;;;;;;;29.40;22.30;;;8.00;99.90;;;;;;5026909;28;20510;-52
2021/12/15 05:30:56;;;;;;;32.17;22.87;;;8.00;99.90;;;;;;5030021;28;20542;-52
2021/12/15 05:33:23;;;;;;;35.13;24.60;;;8.10;99.90;;;;;;5033069;28;20447;-52
2021/12/15 05:35:52;;;;;;;32.70;23.53;;;8.10;99.90;;;;;;5025395;28;20541;-51
2021/12/15 05:38:19;;;;;;;29.70;23.57;;;8.10;99.90;;;;;;5023096;28;20497;-53
2021/12/15 05:40:46;;;;;;;30.10;22.70;;;8.00;99.90;;;;;;5023206;28;20495;-53
2021/12/15 05:43:13;;;;;;;28.57;22.57;;;8.00;95.50;;;;;;5023293;28;20487;-52
2021/12/15 05:45:41;;;;;;;32.20;23.20;;;8.00;90.90;;;;;;5025130;28;22232;-53
2021/12/15 05:48:10;;;;;;;33.40;23.83;;;8.00;79.50;;;;;;5029786;28;20565;-52
2021/12/15 05:50:38;;;;;;;34.90;25.33;;;7.90;99.90;;;;;;5022365;28;20553;-53
2021/12/15 05:53:07;;;;;;;30.20;23.40;;;8.00;99.90;;;;;;5020048;28;20563;-51
2021/12/15 05:55:34;;;;;;;33.53;24.97;;;8.00;99.90;;;;;;5024462;28;20472;-52
2021/12/15 05:58:02;;;;;;;35.93;23.40;;;8.00;97.20;;;;;;5025237;28;20836;-52
2021/12/15 06:00:31;;;;;;;35.80;24.57;;;8.00;99.90;;;;;;5015738;28;20493;-52
2021/12/15 06:02:58;;;;;;;31.60;24.27;;;8.00;99.90;;;;;;5023937;28;20542;-52
2021/12/15 06:05:26;;;;;;;31.00;24.63;;;8.00;99.90;;;;;;5024583;28;20602;-52
2021/12/15 06:07:53;;;;;;;29.67;22.73;;;8.00;99.90;;;;;;5023923;28;20609;-53
2021/12/15 06:10:24;;;;;;;32.13;24.70;;;8.10;99.90;;;;;;5025842;28;20562;-52
2021/12/15 06:12:51;;;;;;;36.10;24.73;;;8.10;99.90;;;;;;5025944;28;20554;-51
2021/12/15 06:15:21;;;;;;;31.40;23.73;;;8.20;99.90;;;;;;5024789;28;20466;-52
2021/12/15 06:17:49;;;;;;;27.70;21.33;;;8.20;99.90;;;;;;5020634;28;20483;-53
2021/12/15 06:20:15;;;;;;;29.70;22.60;;;8.20;99.90;;;;;;5019112;28;20482;-52
2021/12/15 06:22:44;;;;;;;32.53;23.93;;;8.20;99.90;;;;;;5021310;28;20906;-52
2021/12/15 06:25:11;;;;;;;29.23;23.83;;;8.20;22.50;;;;;;5024903;28;20466;-53
2021/12/15 06:27:40;;;;;;;36.60;24.87;;;8.10;26.30;;;;;;5024290;28;20494;-53
2021/12/15 06:30:09;;;;;;;34.00;23.70;;;8.10;29.80;;;;;;5024148;28;20458;-52
2021/12/15 06:32:35;;;;;;;32.83;24.27;;;8.10;27.90;;;;;;5019254;28;20546;-52
2021/12/15 06:35:02;;;;;;;32.63;23.30;;;8.10;27.20;;;;;;5029225;28;20501;-52
2021/12/15 06:37:29;;;;;;;34.30;23.53;;;8.10;29.40;;;;;;5028968;28;20863;-52
2021/12/15 06:39:56;;;;;;;29.53;22.93;;;8.00;26.40;;;;;;5025534;28;20614;-53
2021/12/15 06:42:22;;;;;;;36.07;24.27;;;8.10;28.20;;;;;;5025855;28;20577;-53
2021/12/15 06:44:50;;;;;;;34.03;24.40;;;8.00;28.00;;;;;;5030353;28;20487;-52
2021/12/15 06:58:13;;;;;;;30.57;22.53;;;8.00;22.30;;;;;;4990545;28;20482;-52
2021/12/15 07:00:45;;;;;;;34.13;23.80;;;8.00;78.90;;;;;;5023969;28;20510;-52
2021/12/15 07:03:12;;;;;;;28.77;22.10;;;8.00;86.80;;;;;;5023756;28;21055;-54
2021/12/15 07:05:39;;;;;;;31.40;22.70;;;8.10;84.60;;;;;;5028054;28;20541;-52
2021/12/15 07:08:08;;;;;;;26.50;19.87;;;8.10;90.10;;;;;;5026319;28;20474;-52
2021/12/15 07:10:41;;;;;;;37.90;22.23;;;8.10;97.80;;;;;;5023572;28;20455;-52
2021/12/15 07:13:09;;;;;;;29.80;21.27;;;8.00;20.00;;;;;;5020572;28;20984;-52
2021/12/15 07:15:37;;;;;;;27.83;20.73;;;8.10;20.40;;;;;;5023516;28;20554;-53
2021/12/15 07:18:09;;;;;;;29.60;21.33;;;8.10;77.40;;;;;;5025740;28;20548;-52
2021/12/15 07:20:40;;;;;;;26.60;20.97;;;8.10;78.10;;;;;;5015999;28;20475;-54
2021/12/15 07:23:10;;;;;;;27.07;21.40;;;8.10;77.10;;;;;;5027478;28;20463;-53
2021/12/15 07:25:38;;;;;;;29.93;21.60;;;8.10;73.60;;;;;;5029828;28;20546;-52
2021/12/15 07:28:06;;;;;;;33.23;20.20;;;8.10;22.90;;;;;;5028601;28;20570;-53
2021/12/15 07:30:33;;;;;;;27.40;20.70;;;8.10;23.30;;;;;;5024166;28;20815;-52
2021/12/15 07:33:00;;;;;;;29.33;20.50;;;8.20;21.40;;;;;;5028824;28;20479;-52
2021/12/15 07:35:29;;;;;;;23.03;18.40;;;8.10;21.50;;;;;;5026294;28;20550;-52
2021/12/15 07:37:56;;;;;;;28.43;18.90;;;8.20;22.60;;;;;;5023271;28;20567;-54
2021/12/15 07:40:24;;;;;;;31.03;21.00;;;8.20;23.70;;;;;;5029834;28;20514;-53
2021/12/15 07:43:04;;;;;;;27.97;20.10;;;8.20;26.90;;;;;;5025960;28;20494;-53
2021/12/15 07:45:32;;;;;;;27.27;18.73;;;8.20;24.30;;;;;;5023104;28;20459;-53
2021/12/15 07:48:02;;;;;;;29.07;18.77;;;8.20;26.40;;;;;;5028087;28;20482;-53
2021/12/15 07:50:31;;;;;;;24.27;18.93;;;8.20;27.80;;;;;;5020784;28;20538;-52
2021/12/15 07:52:58;;;;;;;25.77;19.17;;;8.20;27.80;;;;;;5027917;28;20459;-53
2021/12/15 07:55:26;;;;;;;22.97;18.87;;;8.20;35.50;;;;;;5027497;28;20542;-52
2021/12/15 07:57:53;;;;;;;26.27;19.80;;;8.30;32.70;;;;;;5026209;28;20490;-53
2021/12/15 08:00:21;;;;;;;24.40;20.07;;;8.20;32.60;;;;;;5026567;28;20566;-53
2021/12/15 08:02:48;;;;;;;21.80;18.63;;;8.30;33.40;;;;;;5024631;28;21045;-53
2021/12/15 08:05:15;;;;;;;23.90;18.47;;;8.30;33.50;;;;;;5025905;28;20558;-52
2021/12/15 08:07:43;;;;;;;21.57;18.40;;;8.30;33.10;;;;;;5024943;28;20565;-52
2021/12/15 08:10:11;;;;;;;22.60;18.80;;;8.30;34.30;;;;;;5027644;28;20542;-53
2021/12/15 08:12:39;;;;;;;22.73;18.10;;;8.30;34.60;;;;;;5018944;28;20472;-52
2021/12/15 08:15:07;;;;;;;21.90;18.60;;;8.30;36.20;;;;;;5021834;28;20470;-52
2021/12/15 08:17:34;;;;;;;20.30;17.93;;;8.30;32.40;;;;;;5025564;28;20488;-53
2021/12/15 08:20:00;;;;;;;19.47;15.97;;;8.30;32.80;;;;;;5025406;28;20578;-53
2021/12/15 08:22:27;;;;;;;18.43;16.43;;;8.30;31.10;;;;;;5024058;28;20574;-53
2021/12/15 08:24:56;;;;;;;20.87;18.30;;;8.40;26.20;;;;;;5021526;28;20494;-53
2021/12/15 08:27:22;;;;;;;22.37;17.77;;;8.40;30.70;;;;;;5026674;28;22301;-54
2021/12/15 08:29:49;;;;;;;23.33;18.50;;;8.40;33.50;;;;;;5028031;28;20549;-54
2021/12/15 08:32:16;;;;;;;20.63;17.07;;;8.40;37.50;;;;;;5020122;28;20549;-52
2021/12/15 08:34:42;;;;;;;21.27;17.63;;;8.40;39.30;;;;;;5023789;28;20461;-53
2021/12/15 08:37:13;;;;;;;20.80;17.90;;;8.50;39.30;;;;;;5025224;28;20553;-52
2021/12/15 08:39:40;;;;;;;24.00;17.77;;;8.50;39.20;;;;;;5024826;28;20479;-53
2021/12/15 08:42:09;;;;;;;20.23;15.70;;;8.50;40.00;;;;;;5024612;28;20554;-53
2021/12/15 08:44:36;;;;;;;21.70;17.40;;;8.50;44.60;;;;;;5024235;28;20517;-53
2021/12/15 08:47:05;;;;;;;19.60;16.70;;;8.50;44.60;;;;;;5025374;28;20641;-53
2021/12/15 08:49:31;;;;;;;21.43;16.60;;;8.50;44.80;;;;;;5020968;28;20490;-52
2021/12/15 08:51:58;;;;;;;20.27;17.47;;;8.50;49.00;;;;;;5022484;28;20553;-52
2021/12/15 08:54:25;;;;;;;21.10;18.37;;;8.50;49.40;;;;;;5022563;28;20549;-55
2021/12/15 08:56:53;;;;;;;20.40;17.40;;;8.60;46.60;;;;;;5027015;28;20549;-53
2021/12/15 08:59:21;;;;;;;22.17;17.73;;;8.50;46.80;;;;;;5025951;28;20845;-53
2021/12/15 09:01:50;;;;;;;20.97;17.30;;;8.50;49.30;;;;;;5020937;28;20460;-52
2021/12/15 09:04:17;;;;;;;22.70;17.97;;;8.60;49.70;;;;;;5027399;28;20848;-53
2021/12/15 09:06:46;;;;;;;23.30;16.93;;;8.60;48.40;;;;;;5020609;28;20506;-53
2021/12/15 09:09:14;;;;;;;22.30;17.10;;;8.60;56.10;;;;;;5024256;28;20990;-53
2021/12/15 09:11:42;;;;;;;26.30;20.77;;;8.60;51.40;;;;;;5023558;28;20555;-51
2021/12/15 09:14:11;;;;;;;20.30;17.03;;;8.60;51.40;;;;;;5027620;28;20514;-53
2021/12/15 09:16:42;;;;;;;21.47;17.87;;;8.70;51.20;;;;;;5029396;28;20492;-52
2021/12/15 09:19:09;;;;;;;22.87;18.27;;;8.70;51.30;;;;;;5028994;28;21110;-53
2021/12/15 09:21:37;;;;;;;23.17;18.20;;;8.70;53.60;;;;;;5030980;28;20514;-53
2021/12/15 09:24:05;;;;;;;23.67;18.63;;;8.70;52.10;;;;;;5026449;28;20901;-53
2021/12/15 09:26:32;;;;;;;21.30;18.30;;;8.70;58.00;;;;;;5030503;28;20549;-52
2021/12/15 09:28:59;;;;;;;20.20;16.97;;;8.60;56.10;;;;;;5030007;28;20573;-54
2021/12/15 09:31:26;;;;;;;23.60;18.70;;;8.60;53.50;;;;;;5029528;28;21064;-52
2021/12/15 09:33:56;;;;;;;23.40;17.37;;;8.70;51.40;;;;;;5027790;28;20549;-52
2021/12/15 09:36:23;;;;;;;26.53;18.47;;;8.70;53.00;;;;;;5031008;28;20455;-53
2021/12/15 09:38:53;;;;;;;22.17;17.20;;;8.70;49.50;;;;;;5025787;28;20561;-54
2021/12/15 09:41:21;;;;;;;19.20;16.70;;;8.70;50.30;;;;;;5031037;28;21019;-51
2021/12/15 09:43:52;;;;;;;24.93;18.03;;;8.70;49.00;;;;;;5028263;28;20589;-53
2021/12/15 09:46:34;;;;;;;24.33;17.93;;;8.70;49.10;;;;;;5020942;28;20486;-51
2021/12/15 09:57:30;;;;;;;22.30;17.93;;;8.70;47.90;;;;;;5030284;28;20481;-52
2021/12/15 10:02:59;;;;;;;22.80;18.20;;;8.70;43.70;;;;;;5029759;28;20435;-53
2021/12/15 10:19:28;;;;;;;26.80;20.03;;;8.80;47.10;;;;;;5027994;28;20506;-52
2021/12/15 10:22:12;;;;;;;23.60;18.87;;;8.70;47.80;;;;;;5028764;28;20490;-51
2021/12/15 10:24:45;;;;;;;26.23;19.60;;;8.70;49.20;;;;;;5019602;28;20839;-52
2021/12/15 10:27:15;;;;;;;28.87;20.37;;;8.70;45.20;;;;;;5027898;28;20710;-51
2021/12/15 10:30:02;;;;;;;28.93;20.30;;;8.70;53.60;;;;;;5025196;28;20549;-55
2021/12/15 10:32:31;;;;;;;25.43;19.50;;;8.70;43.00;;;;;;5028109;28;20490;-52
2021/12/15 10:35:08;;;;;;;24.07;19.27;;;8.70;42.30;;;;;;5031828;28;20470;-52
2021/12/15 10:37:37;;;;;;;25.03;19.53;;;8.70;36.90;;;;;;5026794;28;20884;-50
2021/12/15 10:40:18;;;;;;;22.83;18.80;;;8.70;39.70;;;;;;5030237;28;20931;-52
2021/12/15 10:42:45;;;;;;;23.87;18.13;;;8.80;39.10;;;;;;5031123;28;20626;-53
2021/12/15 10:45:15;;;;;;;24.50;18.70;;;8.80;38.40;;;;;;5031301;28;20907;-52
2021/12/15 10:47:44;;;;;;;22.90;19.07;;;8.80;38.50;;;;;;5029602;28;20577;-53
2021/12/15 10:50:19;;;;;;;25.60;19.80;;;8.80;39.00;;;;;;5012684;28;20483;-53
2021/12/15 10:52:56;;;;;;;24.53;18.90;;;8.80;41.80;;;;;;5030508;28;20477;-51
2021/12/15 10:55:30;;;;;;;24.70;18.17;;;8.80;45.60;;;;;;5029679;28;20478;-51
2021/12/15 11:00:25;;;;;;;27.50;17.23;;;8.90;45.40;;;;;;5020797;28;20834;-55
2021/12/15 11:03:03;;;;;;;19.97;17.27;;;8.90;51.10;;;;;;5029171;28;20958;-56
2021/12/15 11:05:29;;;;;;;21.30;16.90;;;8.90;57.40;;;;;;5028478;28;20463;-56
2021/12/15 11:07:59;;;;;;;22.97;17.43;;;8.90;61.40;;;;;;5024555;28;20535;-55
2021/12/15 11:10:30;;;;;;;19.90;16.07;;;8.90;64.60;;;;;;5013611;28;20539;-55
2021/12/15 11:12:59;;;;;;;20.83;17.23;;;9.00;66.50;;;;;;5005169;28;20968;-55
2021/12/15 11:15:29;;;;;;;19.30;16.50;;;9.00;70.70;;;;;;5011759;28;20848;-55
2021/12/15 11:17:58;;;;;;;22.10;17.93;;;9.00;75.30;;;;;;5010682;28;20440;-55
2021/12/15 11:20:27;;;;;;;19.53;16.27;;;9.00;72.00;;;;;;5002607;28;20594;-57
2021/12/15 11:23:01;;;;;;;31.63;18.40;;;9.00;74.30;;;;;;5010824;28;20505;-55
2021/12/15 11:25:45;;;;;;;17.20;15.40;;;9.10;80.10;;;;;;5008209;28;20452;-55
2021/12/15 11:28:19;;;;;;;20.00;15.93;;;9.00;87.70;;;;;;5010210;28;20545;-57
2021/12/15 11:30:50;;;;;;;19.60;16.20;;;9.00;90.60;;;;;;5010958;28;20523;-55
2021/12/15 11:33:19;;;;;;;20.93;17.57;;;9.10;87.50;;;;;;5011587;28;20522;-56
2021/12/15 11:35:48;;;;;;;18.20;15.50;;;9.10;87.10;;;;;;5009854;28;20555;-56
2021/12/15 11:38:21;;;;;;;20.20;15.90;;;9.20;91.20;;;;;;5007574;28;20566;-56
2021/12/15 11:40:51;;;;;;;19.30;16.60;;;9.20;96.10;;;;;;5011184;28;20508;-55
2021/12/15 11:43:35;;;;;;;20.23;15.90;;;9.20;99.90;;;;;;5011306;28;20953;-55
2021/12/15 11:46:05;;;;;;;19.90;15.00;;;9.20;99.90;;;;;;5011082;28;20546;-56
2021/12/15 11:48:33;;;;;;;19.20;16.20;;;9.20;99.90;;;;;;5010786;28;20487;-54
2021/12/15 11:51:03;;;;;;;18.00;14.60;;;9.20;99.90;;;;;;5009658;28;21003;-54
2021/12/15 11:53:42;;;;;;;16.13;14.43;;;9.20;99.90;;;;;;5011310;28;20533;-55
2021/12/15 11:56:31;;;;;;;17.27;14.40;;;9.20;99.90;;;;;;5011383;28;20889;-55
2021/12/15 11:59:03;;;;;;;14.27;12.83;;;9.20;99.90;;;;;;5010852;28;20988;-55
2021/12/15 12:01:49;;;;;;;16.53;14.30;;;9.20;99.90;;;;;;5011249;28;20574;-56
2021/12/15 12:04:26;;;;;;;14.67;13.20;;;9.20;99.90;;;;;;5008795;28;20503;-54
2021/12/15 12:06:56;;;;;;;15.83;14.13;;;9.20;99.90;;;;;;5011336;28;20526;-55
2021/12/15 12:09:25;;;;;;;15.50;12.80;;;9.20;99.90;;;;;;5010803;28;20467;-55
2021/12/15 12:11:56;;;;;;;15.00;12.77;;;9.20;99.90;;;;;;5011018;28;20483;-56
2021/12/15 12:17:13;;;;;;;15.70;13.63;;;9.30;99.90;;;;;;5007585;28;20822;-54
2021/12/15 12:19:48;;;;;;;14.90;12.97;;;9.30;99.90;;;;;;5010875;28;20474;-56
2021/12/15 12:22:16;;;;;;;14.20;12.70;;;9.30;99.90;;;;;;5010695;28;21042;-56
2021/12/15 12:24:46;;;;;;;13.93;12.43;;;9.30;99.90;;;;;;5009938;28;20491;-55
2021/12/15 12:27:14;;;;;;;14.97;12.37;;;9.30;99.90;;;;;;5011572;28;20451;-55
2021/12/15 12:29:41;;;;;;;15.50;12.07;;;9.30;99.90;;;;;;5009801;28;21075;-56
2021/12/15 12:32:09;;;;;;;14.10;12.50;;;9.30;99.90;;;;;;5011700;28;20576;-46
2021/12/15 12:34:36;;;;;;;12.90;11.60;;;9.30;99.90;;;;;;5011173;28;20530;-45
2021/12/15 12:37:02;;;;;;;13.30;12.00;;;9.30;99.90;;;;;;5010667;28;20479;-46
2021/12/15 12:39:34;;;;;;;13.33;11.93;;;9.30;99.90;;;;;;5010274;28;20504;-47
2021/12/15 12:42:03;;;;;;;12.80;11.50;;;9.30;99.90;;;;;;5013018;28;20917;-47
2021/12/15 12:44:37;;;;;;;13.17;11.87;;;9.30;99.90;;;;;;5014806;28;20487;-47
2021/12/15 12:47:18;;;;;;;13.80;11.67;;;9.30;99.90;;;;;;5014971;28;20855;-47
2021/12/15 12:50:02;;;;;;;12.67;11.37;;;9.30;99.90;;;;;;5014030;28;20467;-47
2021/12/15 13:00:55;;;;;;;12.00;10.83;;;9.30;99.90;;;;;;5013410;28;20505;-46
2021/12/15 13:03:33;;;;;;;16.90;11.70;;;9.30;99.90;;;;;;5012758;28;20522;-47
2021/12/15 13:06:02;;;;;;;11.40;9.90;;;9.40;99.90;;;;;;5014417;28;20534;-46
2021/12/15 13:08:38;;;;;;;11.63;10.43;;;9.40;99.90;;;;;;5012179;28;20483;-48
2021/12/15 13:11:15;;;;;;;14.13;11.40;;;9.40;99.90;;;;;;5014364;28;20458;-47
2021/12/15 13:14:09;;;;;;;11.70;10.30;;;9.40;99.90;;;;;;5013679;28;20810;-48
2021/12/15 13:16:41;;;;;;;12.03;10.67;;;9.40;99.90;;;;;;4995583;28;20452;-46
2021/12/15 13:19:18;;;;;;;13.10;10.63;;;9.40;99.90;;;;;;5013761;28;20475;-47
2021/12/15 13:21:56;;;;;;;11.03;9.90;;;9.40;99.90;;;;;;5012454;28;20593;-48
2021/12/15 13:30:35;;;;;;;14.63;11.00;;;9.50;99.90;;;;;;5009609;28;20471;-46
2021/12/15 13:33:11;;;;;;;12.13;10.80;;;9.50;99.90;;;;;;5001224;28;20566;-47
2021/12/15 13:35:44;;;;;;;10.67;9.60;;;9.40;99.90;;;;;;5005735;28;20451;-46
2021/12/15 13:38:12;;;;;;;11.30;10.10;;;9.50;99.90;;;;;;5006709;28;20965;-47
2021/12/15 13:41:19;;;;;;;10.53;9.43;;;9.50;99.90;;;;;;5011132;28;20495;-47
2021/12/15 13:44:01;;;;;;;10.13;9.13;;;9.50;99.90;;;;;;4930676;29;20497;-48
2021/12/15 13:46:47;;;;;;;11.27;10.17;;;9.50;99.90;;;;;;5003263;28;20564;-47
2021/12/15 13:49:23;;;;;;;10.20;9.20;;;9.50;99.90;;;;;;5004683;28;20583;-47
2021/12/15 13:52:06;;;;;;;10.20;9.00;;;9.50;99.90;;;;;;5000754;28;20440;-46
2021/12/15 13:54:52;;;;;;;10.43;9.23;;;9.40;99.90;;;;;;5010156;28;20494;-46
2021/12/15 13:57:22;;;;;;;11.23;10.03;;;9.50;99.90;;;;;;5010342;28;20527;-52
2021/12/15 13:59:57;;;;;;;10.27;9.17;;;9.50;99.90;;;;;;5011202;28;20995;-47
2021/12/15 14:02:29;;;;;;;13.53;10.37;;;9.50;99.90;;;;;;5000255;28;21015;-47
2021/12/15 14:04:59;;;;;;;10.00;9.00;;;9.50;99.90;;;;;;5008606;28;20544;-47
2021/12/15 14:07:38;;;;;;;13.30;9.80;;;9.50;99.90;;;;;;5013721;28;20456;-47
2021/12/15 14:10:46;;;;;;;10.20;9.20;;;9.50;99.90;;;;;;5009509;28;20459;-47
2021/12/15 14:13:14;;;;;;;11.97;10.33;;;9.50;99.90;;;;;;5001739;28;20538;-46
2021/12/15 14:15:53;;;;;;;11.57;10.33;;;9.50;99.90;;;;;;5004277;28;20542;-47
2021/12/15 14:18:25;;;;;;;11.13;9.30;;;9.40;99.90;;;;;;5006106;28;20479;-46
2021/12/15 14:20:57;;;;;;;11.13;10.03;;;9.50;99.90;;;;;;5003017;28;20522;-46